Latest Coastal Weather Observations for Cape Borda

IDT60701

Issued at 3:32 am EST Monday 20 April 2015 (issued every 10 minutes, with the page automatically refreshed every 10 minutes)

About coastal observations | Map of coastal stations | Coastal observations for TAS | Marine services | Other Formats
Station Details ID: 022823 Name: CAPE BORDA Lat: -35.75 Lon: 136.60 Height: 158.0 m
Data from the previous 72 hours. | See also: Recent months at Cape Borda
Date/Time
EST
Temp

°C
Wind Pressure Rain
since 9am
mm
Weather Cloud Vis
km
Sea
Height
m
Swell
Dir
 
Speed
knots
Gust
knots
hPa Trend Height
m
Period
s
Dir
20/03:30am 7.2 SE 9 10 1037.9 - 0.0 - - - - - - -
20/03:00am 7.2 SE 10 11 1038.0 - 0.0 - - - - - - -
20/02:30am 7.2 SE 9 11 1038.0 - 0.0 - - - - - - -
20/02:00am 7.0 SE 9 9 1038.1 - 0.0 - - - - - - -
20/01:30am 7.3 SE 9 9 1038.1 - 0.0 - - - - - - -
20/01:00am 7.7 SE 8 8 1038.0 - 0.0 - - - - - - -
20/12:30am 8.5 SE 7 8 1038.0 - 0.0 - - - - - - -
20/12:00am 7.7 ESE 8 9 1038.1 - 0.0 - - - - - - -
 
Date/Time
EST
Temp

°C
Wind Pressure Rain
since 9am
mm
Weather Cloud Vis
km
Sea
Height
m
Swell
Dir
 
Speed
knots
Gust
knots
hPa Trend Height
m
Period
s
Dir
19/11:30pm 7.3 ESE 9 9 1038.2 - 0.0 - - - - - - -
19/11:00pm 8.0 ESE 8 8 1038.2 - 0.0 - - - - - - -
19/10:30pm 8.6 SE 8 9 1038.2 - 0.0 - - - - - - -
19/10:00pm 7.7 SE 9 9 1038.0 - 0.0 - - - - - - -
19/09:30pm 8.0 SE 9 9 1037.9 - 0.0 - - - - - - -
19/09:00pm 8.4 SE 8 9 1037.5 - 0.0 - - - - - - -
19/08:30pm 8.2 SE 8 9 1037.2 - 0.0 - - - - - - -
19/08:00pm 8.5 SE 7 8 1037.0 - 0.0 - - - - - - -
19/07:30pm 8.2 SE 7 8 1036.8 - 0.0 - - - - - - -
19/07:00pm 9.4 SE 7 8 1036.4 - 0.0 - - - - - - -
19/06:30pm 10.8 SE 8 11 1035.8 - 0.0 - - - - - - -
19/06:00pm 12.5 SE 12 16 1035.6 - 0.0 - - - - - - -
19/05:30pm 12.7 SSE 11 16 1035.4 - 0.0 - - - - - - -
19/05:00pm 13.6 SSE 12 15 1035.2 - 0.0 - - - - - - -
19/04:30pm 14.2 SSE 12 17 1035.1 - 0.0 - - - - - - -
19/04:00pm 13.8 SSE 13 19 1034.8 - 0.0 - - - - - - -
19/03:30pm 13.8 S 11 13 1034.5 R 0.0 Fine Partly cloudy 20 1 7.0 10 SW
19/03:00pm 14.2 SSE 11 21 1034.5 - 0.0 - - - - - - -
19/02:30pm 14.9 SSE 12 17 1034.4 - 0.0 - - - - - - -
19/02:00pm 14.7 SSE 15 21 1034.4 - 0.0 - - - - - - -
19/01:36pm 14.2 S 17 24 1034.2 - 0.0 - - - - - - -
19/01:30pm 15.1 SE 10 14 1034.2 - 0.0 - - - - - - -
19/01:00pm 13.9 SSE 13 19 1034.5 - 0.0 - - - - - - -
19/12:30pm 13.8 SSE 15 20 1034.5 - 0.0 - - - - - - -
19/12:00pm 13.2 SSE 15 22 1034.6 - 0.0 - - - - - - -
19/11:30am 14.2 SSE 15 22 1034.5 - 0.0 - - - - - - -
19/11:00am 13.0 SSE 13 21 1034.3 - 0.0 - - - - - - -
19/10:41am 13.0 S 15 25 1034.2 - 0.0 - - - - - - -
19/10:30am 13.5 SSE 15 23 1034.2 - 0.0 - - - - - - -
19/10:00am 13.0 S 15 22 1033.9 - 0.0 - - - - - - -
19/09:30am 11.7 SSE 12 18 1033.6 R 3.6 Haze Mostly clear 18 1 9.0 10 SW
19/09:00am 12.1 S 13 20 1033.1 - 3.6 - - - - - - -
19/08:30am 10.2 SSE 11 17 1032.5 - 3.6 - - - - - - -
19/08:00am 9.3 SSE 10 13 1031.7 - 3.6 - - - - - - -
19/07:30am 8.0 S 8 10 1031.1 - 3.6 - - - - - - -
19/07:00am 8.1 S 9 13 1030.5 - 3.6 - - - - - - -
19/06:30am 7.9 S 11 15 1029.8 - 3.6 - - - - - - -
19/06:00am 7.2 S 10 12 1029.5 - 3.6 - - - - - - -
19/05:30am 7.5 S 10 13 1029.1 - 3.6 - - - - - - -
19/05:00am 8.4 S 12 14 1028.7 - 3.6 - - - - - - -
19/04:30am 8.8 S 12 17 1028.3 - 3.6 - - - - - - -
19/04:00am 9.2 S 17 27 1027.8 - 3.6 - - - - - - -
19/03:53am 9.3 S 16 26 1027.7 - 3.6 - - - - - - -
19/03:30am 8.3 S 9 13 1027.6 - 3.6 - - - - - - -
19/03:00am 8.0 S 10 13 1027.6 - 3.6 - - - - - - -
19/02:30am 8.4 S 12 17 1027.6 - 3.6 - - - - - - -
19/02:00am 8.4 S 11 16 1027.3 - 3.6 - - - - - - -
19/01:30am 9.1 S 15 20 1027.0 - 3.6 - - - - - - -
19/01:17am 9.0 S 15 25 1026.9 - 3.2 - - - - - - -
19/01:00am 8.9 S 9 12 1026.6 - 2.4 - - - - - - -
19/12:30am 9.7 S 12 17 1026.4 - 2.4 - - - - - - -
19/12:00am 10.0 S 11 16 1026.0 - 2.4 - - - - - - -
 
Date/Time
EST
Temp

°C
Wind Pressure Rain
since 9am
mm
Weather Cloud Vis
km
Sea
Height
m
Swell
Dir
 
Speed
knots
Gust
knots
hPa Trend Height
m
Period
s
Dir
18/11:30pm 9.5 S 11 17 1026.0 - 2.4 - - - - - - -
18/11:01pm 11.2 S 15 27 1025.5 - 2.4 - - - - - - -
18/11:00pm 11.4 S 14 20 1025.6 - 2.4 - - - - - - -
18/10:30pm 11.2 SSW 11 15 1025.2 - 2.4 - - - - - - -
18/10:00pm 10.9 S 14 21 1024.9 - 2.4 - - - - - - -
18/09:30pm 11.3 SSW 15 22 1024.2 - 2.4 - - - - - - -
18/09:00pm 11.6 SSW 13 18 1023.8 - 2.4 - - - - - - -
18/08:30pm 12.3 SSW 17 26 1023.2 - 2.4 - - - - - - -
18/08:00pm 11.7 SSW 15 22 1022.8 - 2.4 - - - - - - -
18/07:30pm 10.8 S 13 18 1022.1 - 2.4 - - - - - - -
18/07:00pm 12.3 SSW 15 23 1021.4 - 2.4 - - - - - - -
18/06:30pm 11.9 SSW 15 21 1020.7 - 2.4 - - - - - - -
18/06:00pm 12.8 SSW 16 24 1020.1 - 2.4 - - - - - - -
18/05:30pm 13.6 SSW 19 26 1019.4 - 2.4 - - - - - - -
18/05:00pm 14.1 SSW 18 29 1019.1 - 2.4 - - - - - - -
18/04:30pm 14.2 SSW 19 26 1018.7 - 2.4 - - - - - - -
18/04:00pm 14.6 SSW 21 31 1018.1 - 2.4 - - - - - - -
18/03:38pm 14.4 SSW 15 25 1017.9 - 2.4 - - - - - - -
18/03:30pm 13.5 S 13 20 1017.8 F 2.4 Distant precip. Mostly cloudy 15 1 7.0 10 SW
18/03:00pm 12.7 SSW 15 25 1017.6 - 2.4 - - - - - - -
18/02:30pm 12.7 SSW 12 17 1017.4 - 2.4 - - - - - - -
18/02:00pm 11.9 SSW 16 23 1017.3 - 2.2 - - - - - - -
18/01:30pm 12.0 SSW 18 29 1017.2 - 1.8 - - - - - - -
18/01:00pm 12.8 SSW 20 29 1017.0 - 1.8 - - - - - - -
18/12:34pm 12.9 SSW 19 29 1017.0 - 1.0 - - - - - - -
18/12:30pm 13.1 SSW 19 27 1016.9 - 1.0 - - - - - - -
18/12:05pm 13.6 SSW 20 30 1016.6 - 0.8 - - - - - - -
18/12:00pm 13.7 SSW 20 28 1016.5 - 0.4 - - - - - - -
18/11:30am 17.3 W 18 25 1016.2 - 0.0 - - - - - - -
18/11:00am 17.1 W 18 25 1016.4 - 0.0 - - - - - - -
18/10:32am 17.3 W 18 28 1016.3 - 0.0 - - - - - - -
18/10:30am 17.4 W 17 25 1016.3 - 0.0 - - - - - - -
18/10:00am 16.7 W 17 25 1016.3 - 0.0 - - - - - - -
18/09:30am 16.5 W 17 26 1016.2 S 0.4 Haze Mostly cloudy 15 3 5.4 8 SW
18/09:00am 15.5 W 14 19 1016.1 - 0.4 - - - - - - -
18/08:30am 14.3 WNW 16 23 1015.8 - 0.4 - - - - - - -
18/08:00am 15.6 W 17 23 1015.6 - 0.4 - - - - - - -
18/07:30am 15.5 WNW 17 24 1015.4 - 0.4 - - - - - - -
18/07:00am 15.2 WNW 16 21 1015.3 - 0.4 - - - - - - -
18/06:30am 14.9 WNW 13 18 1015.0 - 0.4 - - - - - - -
18/06:00am 14.6 WNW 15 19 1015.3 - 0.4 - - - - - - -
18/05:30am 14.1 WNW 15 19 1015.3 - 0.4 - - - - - - -
18/05:04am 15.4 WNW 17 27 1015.0 - 0.0 - - - - - - -
18/05:00am 15.3 WNW 15 22 1015.0 - 0.0 - - - - - - -
18/04:30am 15.0 WNW 14 19 1014.9 - 0.0 - - - - - - -
18/04:00am 14.5 WNW 14 19 1015.0 - 0.0 - - - - - - -
18/03:30am 14.3 WNW 12 19 1015.1 - 0.0 - - - - - - -
18/03:00am 14.1 WNW 12 17 1015.6 - 0.0 - - - - - - -
18/02:30am 13.8 WNW 10 14 1015.9 - 0.0 - - - - - - -
18/02:00am 13.6 WNW 10 15 1016.2 - 0.0 - - - - - - -
18/01:30am 13.3 WNW 9 14 1016.4 - 0.0 - - - - - - -
18/01:00am 13.4 WNW 9 13 1016.6 - 0.0 - - - - - - -
18/12:30am 12.9 W 9 14 1016.9 - 0.0 - - - - - - -
18/12:00am 12.5 W 7 10 1017.3 - 0.0 - - - - - - -
 
Date/Time
EST
Temp

°C
Wind Pressure Rain
since 9am
mm
Weather Cloud Vis
km
Sea
Height
m
Swell
Dir
 
Speed
knots
Gust
knots
hPa Trend Height
m
Period
s
Dir
17/11:30pm 12.1 W 6 9 1017.8 - 0.0 - - - - - - -
17/11:00pm 11.4 W 7 10 1018.1 - 0.0 - - - - - - -
17/10:30pm 11.2 WSW 5 7 1018.1 - 0.0 - - - - - - -
17/10:00pm 12.1 WSW 6 10 1018.2 - 0.0 - - - - - - -
17/09:30pm 12.5 WSW 7 9 1018.3 - 0.0 - - - - - - -
17/09:00pm 12.9 SW 7 9 1018.1 - 0.0 - - - - - - -
17/08:30pm 13.3 SW 7 8 1017.8 - 0.0 - - - - - - -
17/08:00pm 13.7 SW 6 8 1017.7 - 0.0 - - - - - - -
17/07:30pm 13.9 SSW 8 11 1017.6 - 0.0 - - - - - - -
17/07:00pm 14.0 SSW 6 8 1017.3 - 0.0 - - - - - - -
17/06:30pm 14.1 SSW 8 11 1017.1 - 0.0 - - - - - - -
17/06:00pm 14.3 SSW 8 11 1016.9 - 0.0 - - - - - - -
17/05:30pm 14.6 SSW 8 11 1016.9 - 0.0 - - - - - - -
17/05:00pm 14.7 SSW 9 13 1016.9 - 0.0 - - - - - - -
17/04:30pm 14.9 SSW 11 15 1016.9 - 0.0 - - - - - - -
17/04:00pm 15.3 SW 11 16 1016.9 - 0.0 - - - - - - -
17/03:30pm 15.9 SSW 8 12 1017.1 F 0.0 Fine Cloudy 15 <0.5 5.6 10 SW
17/03:00pm 15.5 S 9 11 1017.5 - 0.0 - - - - - - -
17/02:30pm 15.0 SW 9 13 1017.8 - 0.0 - - - - - - -
17/02:00pm 15.1 WSW 8 11 1018.2 - 0.0 - - - - - - -
17/01:30pm 14.6 WNW 5 6 1018.6 - 0.0 - - - - - - -
17/01:00pm 15.4 S 3 5 1019.1 - 0.0 - - - - - - -
17/12:30pm 15.6 E 7 8 1019.5 - 0.0 - - - - - - -
17/12:00pm 14.9 ESE 7 10 1020.1 - 0.0 - - - - - - -
17/11:30am 14.8 E 9 13 1020.5 - 0.0 - - - - - - -
17/11:00am 14.6 SE 9 12 1020.9 - 0.0 - - - - - - -
17/10:30am 13.9 SE 11 14 1021.2 - 0.0 - - - - - - -
17/10:00am 14.0 SE 11 16 1021.4 - 0.0 - - - - - - -
17/09:30am 13.7 SE 11 17 1021.3 F 0.0 Distant precip. Cloudy 15 <0.5 6.7 10 SW
17/09:00am 13.2 SE 11 18 1021.5 - 0.0 - - - - - - -
17/08:30am 13.1 SE 13 18 1021.4 - 0.0 - - - - - - -
17/08:00am 12.9 SSE 15 20 1020.5 - 0.0 - - - - - - -
17/07:30am 12.8 SSE 16 22 1020.3 - 0.0 - - - - - - -
17/07:00am 12.7 SSE 15 20 1020.8 - 0.0 - - - - - - -
17/06:30am 12.5 SSE 13 16 1020.9 - 0.0 - - - - - - -
17/06:00am 12.6 SSE 13 18 1021.4 - 0.0 - - - - - - -
17/05:30am 12.3 SSE 11 14 1021.7 - 0.0 - - - - - - -
17/05:00am 12.4 SSE 11 14 1021.6 - 0.0 - - - - - - -
17/04:30am 12.4 SE 9 13 1021.5 - 0.0 - - - - - - -

Other Formats:

Comma delimited format used in spreadsheet applications
http://www.bom.gov.au/fwo/IDT60701/IDT60701.95805.axf

JavaScript Object Notation format (JSON) in row-major order
http://www.bom.gov.au/fwo/IDT60701/IDT60701.95805.json